Time;durP1;ratioP1;P1;durP2;ratioP2;P2;SDS_P1;SDS_P2;PMS_P1;PMS_P2;Temp;Humidity;BMP_temperature;BMP_pressure;BME280_temperature;BME280_humidity;BME280_pressure;Samples;Min_cycle;Max_cycle;Signal;HPM_P1;HPM_P2
2022/03/01 00:01:22;;;;;;;;;;;5.50;87.40;;;;;;5075677;28;20358;-64
2022/03/01 00:03:48;;;;;;;;;;;5.50;88.10;;;;;;5057058;28;19959;-64
2022/03/01 00:06:13;;;;;;;;;;;5.50;87.60;;;;;;5058206;28;19944;-64
2022/03/01 00:08:39;;;;;;;;;;;5.60;87.30;;;;;;5076060;28;19955;-72
2022/03/01 00:11:04;;;;;;;;;;;5.70;86.70;;;;;;5075878;28;19931;-64
2022/03/01 00:13:30;;;;;;;;;;;5.70;86.90;;;;;;5075677;28;20261;-64
2022/03/01 00:15:55;;;;;;;;;;;5.60;87.00;;;;;;5075271;28;19912;-72
2022/03/01 00:18:21;;;;;;;;;;;5.80;86.90;;;;;;5075721;28;20308;-68
2022/03/01 00:20:46;;;;;;;;;;;5.80;86.20;;;;;;5057420;28;19916;-65
2022/03/01 00:23:12;;;;;;;;;;;5.50;86.40;;;;;;5057184;28;19920;-64
2022/03/01 00:25:37;;;;;;;;;;;5.70;86.10;;;;;;5074987;28;19920;-64
2022/03/01 00:28:03;;;;;;;;;;;5.70;86.10;;;;;;5056466;28;20021;-65
2022/03/01 00:30:28;;;;;;;;;;;5.30;86.20;;;;;;5075152;28;19913;-64
2022/03/01 00:32:54;;;;;;;;;;;5.00;87.00;;;;;;5074689;28;19912;-64
2022/03/01 00:35:19;;;;;;;;;;;5.00;87.40;;;;;;5075514;28;19908;-66
2022/03/01 00:37:45;;;;;;;;;;;4.70;88.30;;;;;;5074994;28;19999;-65
2022/03/01 00:40:11;;;;;;;;;;;4.90;88.30;;;;;;5075049;28;20111;-64
2022/03/01 00:42:37;;;;;;;;;;;4.80;88.10;;;;;;5057254;28;19908;-66
2022/03/01 00:45:02;;;;;;;;;;;4.80;87.70;;;;;;5074543;28;19913;-66
2022/03/01 00:47:28;;;;;;;;;;;4.70;88.00;;;;;;5056617;28;19917;-65
2022/03/01 00:49:54;;;;;;;;;;;4.60;88.10;;;;;;5074171;28;19908;-65
2022/03/01 00:52:19;;;;;;;;;;;4.50;88.40;;;;;;5057148;28;19913;-64
2022/03/01 00:54:45;;;;;;;;;;;4.40;89.20;;;;;;5074695;28;20332;-73
2022/03/01 00:57:10;;;;;;;;;;;4.70;88.70;;;;;;5075670;28;20358;-68
2022/03/01 00:59:36;;;;;;;;;;;4.70;88.20;;;;;;5057870;28;20336;-65
2022/03/01 01:02:01;;;;;;;;;;;4.60;88.10;;;;;;5076600;28;19908;-63
2022/03/01 01:04:27;;;;;;;;;;;4.40;88.40;;;;;;5077328;28;19918;-73
2022/03/01 01:06:52;;;;;;;;;;;4.50;88.80;;;;;;5058088;28;19935;-67
2022/03/01 01:09:18;;;;;;;;;;;4.30;89.10;;;;;;5058424;28;19912;-65
2022/03/01 01:11:44;;;;;;;;;;;4.50;89.50;;;;;;5074806;28;19912;-64
2022/03/01 01:14:09;;;;;;;;;;;4.50;88.70;;;;;;5056519;28;20346;-63
2022/03/01 01:16:35;;;;;;;;;;;4.50;88.70;;;;;;5075410;28;19954;-66
2022/03/01 01:19:00;;;;;;;;;;;4.50;88.10;;;;;;5040290;28;19915;-67
2022/03/01 01:22:39;;;;;;;;;;;4.40;88.50;;;;;;5083696;28;19915;-65
2022/03/01 01:24:11;;;;;;;;;;;4.20;88.10;;;;;;5075662;28;19925;-66
2022/03/01 01:26:37;;;;;;;;;;;4.10;88.70;;;;;;5056462;28;19931;-64
2022/03/01 01:29:02;;;;;;;;;;;4.20;88.90;;;;;;5055891;28;19908;-64
2022/03/01 01:31:28;;;;;;;;;;;4.10;89.10;;;;;;5074390;28;19912;-65
2022/03/01 01:33:53;;;;;;;;;;;4.20;89.10;;;;;;5055859;28;20295;-66
2022/03/01 01:36:19;;;;;;;;;;;4.10;88.80;;;;;;5074231;28;19915;-67
2022/03/01 01:38:44;;;;;;;;;;;4.00;89.40;;;;;;5056356;28;19908;-64
2022/03/01 01:41:10;;;;;;;;;;;4.10;88.60;;;;;;5073551;28;19912;-65
2022/03/01 01:43:36;;;;;;;;;;;4.20;88.80;;;;;;5056004;28;19924;-63
2022/03/01 01:46:01;;;;;;;;;;;4.10;88.60;;;;;;5073713;28;19908;-65
2022/03/01 01:48:26;;;;;;;;;;;4.10;88.70;;;;;;5056088;28;19908;-64
2022/03/01 01:50:52;;;;;;;;;;;4.00;88.90;;;;;;5056039;28;19908;-64
2022/03/01 01:53:19;;;;;;;;;;;4.00;89.30;;;;;;5056772;28;19930;-65
2022/03/01 01:55:45;;;;;;;;;;;3.70;90.00;;;;;;5074883;28;19960;-65
2022/03/01 01:58:10;;;;;;;;;;;3.60;90.10;;;;;;5073501;28;19908;-65
2022/03/01 02:00:36;;;;;;;;;;;3.60;90.10;;;;;;5056050;28;19955;-66
2022/03/01 02:03:01;;;;;;;;;;;3.70;90.20;;;;;;5073824;28;19956;-66
2022/03/01 02:05:27;;;;;;;;;;;3.50;90.30;;;;;;5074832;28;19912;-67
2022/03/01 02:07:52;;;;;;;;;;;3.40;90.50;;;;;;5074401;28;20041;-66
2022/03/01 02:10:18;;;;;;;;;;;3.40;90.70;;;;;;5075135;28;20385;-64
2022/03/01 02:12:44;;;;;;;;;;;3.40;90.50;;;;;;5075266;28;20346;-67
2022/03/01 02:15:10;;;;;;;;;;;3.60;90.50;;;;;;5056502;28;20418;-65
2022/03/01 02:17:38;;;;;;;;;;;3.40;90.60;;;;;;5074462;28;20007;-64
2022/03/01 02:20:17;;;;;;;;;;;3.40;90.60;;;;;;5055577;28;19912;-66
2022/03/01 02:22:42;;;;;;;;;;;3.40;90.70;;;;;;5073870;28;19927;-65
2022/03/01 02:25:08;;;;;;;;;;;3.30;90.70;;;;;;5073832;28;19925;-67
2022/03/01 02:27:34;;;;;;;;;;;3.30;90.70;;;;;;5074008;28;20346;-64
2022/03/01 02:29:59;;;;;;;;;;;3.20;90.90;;;;;;5055873;28;19913;-65
2022/03/01 02:32:25;;;;;;;;;;;3.10;91.10;;;;;;5055973;28;19909;-64
2022/03/01 02:34:50;;;;;;;;;;;3.10;91.20;;;;;;5073231;28;19908;-71
2022/03/01 02:37:16;;;;;;;;;;;3.30;90.90;;;;;;5073283;28;19932;-65
2022/03/01 02:39:41;;;;;;;;;;;3.40;90.80;;;;;;5073679;28;19920;-64
2022/03/01 02:42:07;;;;;;;;;;;3.20;91.10;;;;;;5055458;28;20366;-65
2022/03/01 02:44:32;;;;;;;;;;;3.20;91.10;;;;;;5073754;28;19970;-65
2022/03/01 02:46:58;;;;;;;;;;;3.30;91.00;;;;;;5072866;28;19912;-65
2022/03/01 02:49:23;;;;;;;;;;;3.50;90.60;;;;;;5073432;28;19931;-66
2022/03/01 02:51:49;;;;;;;;;;;3.30;90.70;;;;;;5073267;28;19913;-66
2022/03/01 02:54:14;;;;;;;;;;;3.40;90.60;;;;;;5073275;28;19917;-66
2022/03/01 02:56:40;;;;;;;;;;;3.40;90.60;;;;;;5073772;28;20379;-64
2022/03/01 02:59:06;;;;;;;;;;;3.50;90.70;;;;;;5073327;28;19915;-65
2022/03/01 03:01:32;;;;;;;;;;;3.30;90.70;;;;;;5073961;28;20349;-69
2022/03/01 03:03:58;;;;;;;;;;;3.40;90.70;;;;;;5054292;28;19916;-65
2022/03/01 03:06:24;;;;;;;;;;;3.30;90.60;;;;;;5073154;28;19913;-65
2022/03/01 03:08:50;;;;;;;;;;;3.40;90.50;;;;;;5055613;28;19915;-65
2022/03/01 03:11:16;;;;;;;;;;;3.20;90.60;;;;;;5073909;28;19908;-65
2022/03/01 03:13:42;;;;;;;;;;;3.00;91.10;;;;;;5074362;28;19908;-63
2022/03/01 03:16:10;;;;;;;;;;;3.10;91.00;;;;;;5072739;28;20341;-64
2022/03/01 03:18:36;;;;;;;;;;;3.00;91.30;;;;;;5073492;28;19908;-65
2022/03/01 03:21:02;;;;;;;;;;;3.10;91.00;;;;;;5074246;28;20393;-66
2022/03/01 03:23:27;;;;;;;;;;;3.30;91.20;;;;;;5073432;28;19921;-71
2022/03/01 03:25:54;;;;;;;;;;;3.00;91.30;;;;;;5073988;28;19912;-73
2022/03/01 03:28:20;;;;;;;;;;;3.20;91.00;;;;;;5072568;28;20353;-64
2022/03/01 03:30:45;;;;;;;;;;;3.20;91.10;;;;;;5072411;28;20050;-65
2022/03/01 03:33:11;;;;;;;;;;;3.20;90.80;;;;;;5053994;28;19909;-64
2022/03/01 03:35:36;;;;;;;;;;;3.30;90.90;;;;;;5054590;28;19915;-64
2022/03/01 03:38:03;;;;;;;;;;;3.20;91.00;;;;;;5072122;28;20009;-64
2022/03/01 03:40:28;;;;;;;;;;;2.90;91.20;;;;;;5072592;28;19919;-66
2022/03/01 03:42:54;;;;;;;;;;;3.00;91.30;;;;;;5054513;28;19908;-64
2022/03/01 03:45:20;;;;;;;;;;;3.10;91.20;;;;;;5072411;28;19923;-68
2022/03/01 03:47:45;;;;;;;;;;;3.10;91.20;;;;;;5073890;28;19912;-63
2022/03/01 03:50:11;;;;;;;;;;;3.00;91.20;;;;;;5075310;28;19917;-64
2022/03/01 03:52:38;;;;;;;;;;;2.80;91.40;;;;;;5058187;28;19912;-64
2022/03/01 03:55:05;;;;;;;;;;;3.00;91.40;;;;;;5075099;28;19913;-65
2022/03/01 03:57:32;;;;;;;;;;;2.90;91.50;;;;;;5075740;28;20380;-64
2022/03/01 03:59:58;;;;;;;;;;;3.00;91.30;;;;;;5075459;28;19913;-64
2022/03/01 04:02:23;;;;;;;;;;;2.90;91.40;;;;;;5076165;28;19912;-63
2022/03/01 04:04:49;;;;;;;;;;;2.90;91.20;;;;;;5075915;28;20352;-65
2022/03/01 04:07:14;;;;;;;;;;;2.80;91.50;;;;;;5058168;28;19909;-69
2022/03/01 04:09:40;;;;;;;;;;;2.90;91.60;;;;;;5076353;28;20281;-66
2022/03/01 04:12:05;;;;;;;;;;;2.80;91.70;;;;;;5057711;28;19916;-65
2022/03/01 04:14:31;;;;;;;;;;;2.70;91.70;;;;;;5075939;28;19909;-65
2022/03/01 04:16:56;;;;;;;;;;;2.70;91.70;;;;;;5076005;28;19962;-73
2022/03/01 04:19:22;;;;;;;;;;;2.70;91.70;;;;;;5075892;28;19915;-65
2022/03/01 04:21:48;;;;;;;;;;;2.70;91.80;;;;;;5075902;28;19909;-66
2022/03/01 04:24:14;;;;;;;;;;;2.80;91.80;;;;;;5074157;28;19985;-65
2022/03/01 04:26:39;;;;;;;;;;;2.90;91.80;;;;;;5095700;28;20265;-67
2022/03/01 04:29:05;;;;;;;;;;;3.00;91.80;;;;;;5094521;28;19915;-63
2022/03/01 04:31:30;;;;;;;;;;;3.00;91.80;;;;;;5095626;28;20242;-64
2022/03/01 04:33:56;;;;;;;;;;;3.00;91.60;;;;;;5077254;28;20247;-65
2022/03/01 04:36:22;;;;;;;;;;;3.10;91.80;;;;;;5076712;28;20360;-64
2022/03/01 04:38:47;;;;;;;;;;;3.10;91.70;;;;;;5095129;28;19908;-65
2022/03/01 04:41:13;;;;;;;;;;;3.10;91.70;;;;;;5094704;28;19915;-69
2022/03/01 04:43:39;;;;;;;;;;;3.10;91.80;;;;;;5076912;28;19920;-65
2022/03/01 04:46:04;;;;;;;;;;;3.10;91.90;;;;;;5094294;28;20033;-65
2022/03/01 04:48:30;;;;;;;;;;;3.00;92.10;;;;;;5094841;28;19908;-68
2022/03/01 04:50:56;;;;;;;;;;;3.00;92.20;;;;;;5095333;28;19931;-65
2022/03/01 04:53:22;;;;;;;;;;;3.00;92.40;;;;;;5097119;28;19959;-65
2022/03/01 04:55:47;;;;;;;;;;;3.00;92.40;;;;;;5096583;28;19938;-66
2022/03/01 04:58:13;;;;;;;;;;;2.90;92.60;;;;;;5076725;28;19908;-64
2022/03/01 05:00:38;;;;;;;;;;;2.90;92.80;;;;;;5076637;28;19915;-65
2022/03/01 05:03:04;;;;;;;;;;;2.90;93.00;;;;;;5094753;28;19912;-65
2022/03/01 05:05:29;;;;;;;;;;;2.90;93.00;;;;;;5094918;28;19951;-65
2022/03/01 05:07:55;;;;;;;;;;;2.90;92.80;;;;;;5094922;28;20365;-64
2022/03/01 05:10:21;;;;;;;;;;;2.90;92.70;;;;;;5094180;28;19956;-65
2022/03/01 05:12:50;;;;;;;;;;;2.90;92.80;;;;;;5094910;28;19908;-68
2022/03/01 05:15:16;;;;;;;;;;;2.90;92.60;;;;;;5076005;28;19908;-66
2022/03/01 05:17:42;;;;;;;;;;;2.90;92.50;;;;;;5094737;28;19947;-64
2022/03/01 05:20:08;;;;;;;;;;;2.90;92.40;;;;;;5094255;28;19915;-65
2022/03/01 05:22:34;;;;;;;;;;;2.90;92.50;;;;;;5091110;28;19927;-66
2022/03/01 05:25:01;;;;;;;;;;;2.80;92.60;;;;;;5074633;28;20362;-65
2022/03/01 05:27:27;;;;;;;;;;;2.80;92.60;;;;;;5074540;28;19915;-66
2022/03/01 05:29:53;;;;;;;;;;;2.80;92.70;;;;;;5074599;28;19999;-64
2022/03/01 05:32:18;;;;;;;;;;;2.80;92.70;;;;;;5055896;28;19958;-65
2022/03/01 05:34:44;;;;;;;;;;;2.90;92.50;;;;;;5074341;28;19948;-63
2022/03/01 05:37:09;;;;;;;;;;;2.90;92.40;;;;;;5055697;28;19936;-64
2022/03/01 05:39:35;;;;;;;;;;;2.90;92.40;;;;;;5056469;28;19908;-64
2022/03/01 05:42:01;;;;;;;;;;;2.80;92.50;;;;;;5074241;28;19950;-67
2022/03/01 05:44:26;;;;;;;;;;;2.90;92.50;;;;;;5055695;28;19923;-65
2022/03/01 05:46:52;;;;;;;;;;;2.80;92.80;;;;;;5074263;28;19950;-67
2022/03/01 05:49:18;;;;;;;;;;;2.80;92.90;;;;;;5074445;28;19915;-67
2022/03/01 05:51:43;;;;;;;;;;;2.70;93.10;;;;;;5056966;28;19915;-66
2022/03/01 05:54:09;;;;;;;;;;;2.70;93.30;;;;;;5073903;28;19924;-66
2022/03/01 05:56:34;;;;;;;;;;;2.60;93.50;;;;;;5074770;28;19951;-67
2022/03/01 05:59:00;;;;;;;;;;;2.70;93.70;;;;;;5056555;28;19958;-67
2022/03/01 06:01:25;;;;;;;;;;;2.70;93.90;;;;;;5073908;28;20361;-69
2022/03/01 06:03:51;;;;;;;;;;;2.50;94.30;;;;;;5074315;28;19916;-69
2022/03/01 06:06:16;;;;;;;;;;;2.60;95.10;;;;;;5056005;28;19908;-67
2022/03/01 06:08:42;;;;;;;;;;;2.70;94.60;;;;;;5056402;28;19987;-65
2022/03/01 06:11:07;;;;;;;;;;;2.70;94.60;;;;;;5054770;28;19995;-66
2022/03/01 06:13:33;;;;;;;;;;;2.60;94.50;;;;;;5055934;28;19991;-65
2022/03/01 06:16:00;;;;;;;;;;;2.60;94.50;;;;;;5074059;28;19951;-66
2022/03/01 06:18:25;;;;;;;;;;;2.60;94.60;;;;;;5073363;28;19908;-66
2022/03/01 06:20:51;;;;;;;;;;;2.60;94.80;;;;;;5076412;28;20483;-65
2022/03/01 06:23:16;;;;;;;;;;;2.50;94.80;;;;;;5065228;28;19924;-68
2022/03/01 06:25:45;;;;;;;;;;;2.50;95.00;;;;;;5076236;28;19925;-66
2022/03/01 06:28:12;;;;;;;;;;;2.60;94.80;;;;;;5094170;28;19908;-67
2022/03/01 06:30:38;;;;;;;;;;;2.60;94.80;;;;;;5076915;28;19941;-66
2022/03/01 06:33:04;;;;;;;;;;;2.60;94.70;;;;;;5077677;28;20377;-70
2022/03/01 06:35:29;;;;;;;;;;;2.60;94.80;;;;;;5095605;28;19908;-65
2022/03/01 06:37:55;;;;;;;;;;;2.60;94.80;;;;;;5095221;28;20012;-66
2022/03/01 06:40:21;;;;;;;;;;;2.70;94.50;;;;;;5094106;28;20372;-66
2022/03/01 06:42:49;;;;;;;;;;;2.80;94.40;;;;;;5076524;28;19909;-66
2022/03/01 06:45:15;;;;;;;;;;;2.80;94.30;;;;;;5075854;28;20250;-70
2022/03/01 06:47:41;;;;;;;;;;;3.00;94.00;;;;;;5095185;28;19919;-65
2022/03/01 06:50:07;;;;;;;;;;;3.00;93.90;;;;;;5076464;28;19908;-69
2022/03/01 06:52:34;;;;;;;;;;;3.00;94.00;;;;;;5076662;28;19919;-67
2022/03/01 06:55:01;;;;;;;;;;;3.10;93.70;;;;;;5077108;28;19982;-70
2022/03/01 06:57:27;;;;;;;;;;;3.10;93.70;;;;;;5094460;28;20365;-66
2022/03/01 06:59:53;;;;;;;;;;;3.40;93.60;;;;;;5094203;28;19908;-65
2022/03/01 07:02:19;;;;;;;;;;;3.80;92.60;;;;;;5076640;28;19912;-66
2022/03/01 07:04:44;;;;;;;;;;;4.10;91.90;;;;;;5076612;28;19960;-65
2022/03/01 07:07:10;;;;;;;;;;;4.30;91.30;;;;;;5093153;28;20253;-65
2022/03/01 07:09:35;;;;;;;;;;;4.60;90.70;;;;;;5066086;28;19913;-65
2022/03/01 07:12:01;;;;;;;;;;;4.80;90.20;;;;;;5053082;28;19909;-65
2022/03/01 07:14:27;;;;;;;;;;;5.10;89.40;;;;;;5073074;28;20091;-67
2022/03/01 07:16:52;;;;;;;;;;;5.70;92.50;;;;;;5073415;28;19908;-65
2022/03/01 07:19:18;;;;;;;;;;;5.80;86.40;;;;;;5073647;28;20345;-64
2022/03/01 07:21:43;;;;;;;;;;;5.90;84.90;;;;;;5092672;28;20273;-66
2022/03/01 07:24:09;;;;;;;;;;;6.00;83.50;;;;;;5095734;28;19929;-68
2022/03/01 07:26:34;;;;;;;;;;;6.20;83.40;;;;;;5078495;28;19912;-65
2022/03/01 07:29:00;;;;;;;;;;;6.40;81.50;;;;;;5078307;28;19908;-67
2022/03/01 07:31:26;;;;;;;;;;;6.10;80.90;;;;;;5095703;28;20369;-65
2022/03/01 07:33:51;;;;;;;;;;;6.30;80.90;;;;;;5096246;28;19908;-66
2022/03/01 07:36:17;;;;;;;;;;;6.50;79.60;;;;;;5096175;28;19908;-69
2022/03/01 07:38:42;;;;;;;;;;;6.90;78.80;;;;;;5096456;28;19999;-64
2022/03/01 07:41:09;;;;;;;;;;;7.20;77.80;;;;;;5096226;28;19908;-66
2022/03/01 07:43:35;;;;;;;;;;;7.50;79.50;;;;;;5060228;28;20392;-64
2022/03/01 07:46:00;;;;;;;;;;;7.50;77.00;;;;;;5076039;28;19909;-67
2022/03/01 07:48:26;;;;;;;;;;;7.40;76.90;;;;;;5059727;28;19908;-66
2022/03/01 07:50:51;;;;;;;;;;;7.60;75.50;;;;;;5091416;28;19919;-66
2022/03/01 07:53:17;;;;;;;;;;;7.70;74.60;;;;;;5090590;28;19916;-65
2022/03/01 07:55:42;;;;;;;;;;;7.70;75.00;;;;;;5079445;28;19912;-64
2022/03/01 07:58:08;;;;;;;;;;;8.20;74.50;;;;;;5095881;28;19912;-67
2022/03/01 08:00:34;;;;;;;;;;;8.30;74.60;;;;;;5094759;28;19912;-69
2022/03/01 08:02:59;;;;;;;;;;;8.30;74.00;;;;;;5064926;28;20358;-65
2022/03/01 08:05:25;;;;;;;;;;;8.10;72.50;;;;;;5057757;28;20354;-64
2022/03/01 08:07:51;;;;;;;;;;;8.50;71.60;;;;;;5066179;28;19912;-65
2022/03/01 08:10:17;;;;;;;;;;;8.40;71.60;;;;;;5072469;28;19908;-65
2022/03/01 08:12:43;;;;;;;;;;;7.70;71.20;;;;;;5060455;28;19913;-69
2022/03/01 08:15:09;;;;;;;;;;;7.20;74.10;;;;;;5086165;28;20377;-66
2022/03/01 08:17:34;;;;;;;;;;;7.80;72.70;;;;;;5097670;28;20361;-65
2022/03/01 08:20:00;;;;;;;;;;;7.00;73.20;;;;;;5079028;28;20304;-64
2022/03/01 08:22:26;;;;;;;;;;;7.50;72.80;;;;;;5096212;28;19935;-69
2022/03/01 08:24:52;;;;;;;;;;;7.20;72.20;;;;;;5077106;28;20275;-64
2022/03/01 08:27:17;;;;;;;;;;;7.00;73.70;;;;;;5095183;28;20000;-66
2022/03/01 08:29:43;;;;;;;;;;;6.70;73.80;;;;;;5077344;28;20254;-64
2022/03/01 08:32:08;;;;;;;;;;;7.10;73.70;;;;;;5077323;28;19931;-64
2022/03/01 08:34:34;;;;;;;;;;;7.20;72.80;;;;;;5094636;28;19999;-66
2022/03/01 08:36:59;;;;;;;;;;;7.90;71.40;;;;;;5095501;28;19915;-68
2022/03/01 08:39:25;;;;;;;;;;;8.10;71.20;;;;;;5090746;28;19908;-65
2022/03/01 08:41:54;;;;;;;;;;;7.80;72.20;;;;;;5075852;28;19919;-66
2022/03/01 08:44:20;;;;;;;;;;;8.50;70.10;;;;;;5094454;28;20476;-65
2022/03/01 08:46:45;;;;;;;;;;;8.70;99.80;;;;;;5077346;28;19963;-67
2022/03/01 08:49:11;;;;;;;;;;;9.90;92.10;;;;;;5079544;28;19915;-68
2022/03/01 08:51:37;;;;;;;;;;;10.60;88.70;;;;;;5056991;28;19909;-66
2022/03/01 08:54:02;;;;;;;;;;;10.40;83.80;;;;;;5057540;28;19909;-67
2022/03/01 08:56:28;;;;;;;;;;;10.10;88.50;;;;;;5076656;28;20030;-67
2022/03/01 08:58:55;;;;;;;;;;;11.10;96.30;;;;;;5059316;28;20361;-68
2022/03/01 09:01:21;;;;;;;;;;;12.20;88.20;;;;;;5072732;28;19912;-66
2022/03/01 09:03:46;;;;;;;;;;;12.30;66.90;;;;;;5093809;28;19923;-67
2022/03/01 09:06:12;;;;;;;;;;;11.70;64.50;;;;;;5076258;28;19916;-72
2022/03/01 09:08:40;;;;;;;;;;;11.50;63.50;;;;;;5087550;28;20357;-66
2022/03/01 09:11:06;;;;;;;;;;;11.20;61.50;;;;;;5089166;28;20005;-66
2022/03/01 09:13:32;;;;;;;;;;;10.10;62.60;;;;;;5093931;28;20323;-66
2022/03/01 09:15:57;;;;;;;;;;;9.60;63.90;;;;;;5094570;28;19908;-66
2022/03/01 09:18:23;;;;;;;;;;;9.80;64.10;;;;;;5094096;28;19915;-65
2022/03/01 09:20:49;;;;;;;;;;;10.40;63.60;;;;;;5094923;28;19958;-66
2022/03/01 09:23:15;;;;;;;;;;;9.80;64.80;;;;;;5083074;28;19927;-69
2022/03/01 09:25:40;;;;;;;;;;;10.80;91.10;;;;;;5074284;28;20270;-67
2022/03/01 09:28:06;;;;;;;;;;;11.00;75.40;;;;;;5066197;28;19916;-68
2022/03/01 09:30:32;;;;;;;;;;;11.30;81.90;;;;;;5071491;28;20269;-66
2022/03/01 09:32:57;;;;;;;;;;;12.10;78.80;;;;;;5092906;28;19919;-67
2022/03/01 09:35:23;;;;;;;;;;;12.40;88.80;;;;;;5066174;28;20250;-67
2022/03/01 09:37:49;;;;;;;;;;;12.20;78.60;;;;;;5094742;28;19912;-68
2022/03/01 09:40:15;;;;;;;;;;;11.40;75.70;;;;;;5076451;28;19918;-66
2022/03/01 09:42:41;;;;;;;;;;;11.20;88.40;;;;;;5075938;28;19977;-66
2022/03/01 09:45:07;;;;;;;;;;;10.40;74.20;;;;;;5075293;28;19916;-68
2022/03/01 09:47:32;;;;;;;;;;;10.40;84.80;;;;;;5076278;28;19908;-68
2022/03/01 09:49:58;;;;;;;;;;;10.70;81.10;;;;;;5096738;28;20361;-66
2022/03/01 09:52:24;;;;;;;;;;;11.10;78.80;;;;;;5078027;28;20002;-69
2022/03/01 09:54:50;;;;;;;;;;;11.70;81.80;;;;;;5093727;28;19920;-67
2022/03/01 09:57:16;;;;;;;;;;;12.00;71.60;;;;;;5093177;28;19912;-68
2022/03/01 09:59:42;;;;;;;;;;;12.90;72.40;;;;;;5077899;28;19908;-70
2022/03/01 10:02:08;;;;;;;;;;;12.70;82.40;;;;;;5094354;28;20045;-67
2022/03/01 10:04:37;;;;;;;;;;;12.70;70.10;;;;;;5071640;28;19921;-67
2022/03/01 10:07:03;;;;;;;;;;;12.70;61.00;;;;;;5066726;28;19909;-67
2022/03/01 10:09:28;;;;;;;;;;;11.50;59.90;;;;;;5075537;28;19981;-67
2022/03/01 10:11:54;;;;;;;;;;;10.50;61.40;;;;;;5088221;28;19916;-67
2022/03/01 10:14:29;;;;;;;;;;;10.00;61.60;;;;;;5069220;28;19953;-70
2022/03/01 10:16:55;;;;;;;;;;;10.20;62.20;;;;;;5066164;28;19999;-67
2022/03/01 10:19:21;;;;;;;;;;;11.30;59.50;;;;;;5081399;28;19947;-69
2022/03/01 10:22:07;;;;;;;;;;;9.80;60.70;;;;;;5056616;28;19991;-72
2022/03/01 10:24:32;;;;;;;;;;;10.00;62.10;;;;;;5054392;28;19928;-68
2022/03/01 10:26:59;;;;;;;;;;;10.10;61.90;;;;;;5074642;28;20315;-69
2022/03/01 10:29:28;;;;;;;;;;;9.80;60.90;;;;;;5056152;28;19932;-70
2022/03/01 10:32:00;;;;;;;;;;;9.80;60.70;;;;;;5075031;28;19908;-66
2022/03/01 10:34:27;;;;;;;;;;;10.60;60.20;;;;;;5056640;28;19915;-68
2022/03/01 10:36:52;;;;;;;;;;;11.80;60.30;;;;;;5058020;28;20269;-68
2022/03/01 10:39:19;;;;;;;;;;;12.40;57.50;;;;;;5074715;28;20365;-66
2022/03/01 10:41:46;;;;;;;;;;;12.10;56.30;;;;;;5056111;28;20320;-69
2022/03/01 10:44:13;;;;;;;;;;;12.00;57.20;;;;;;5073941;28;19926;-67
2022/03/01 10:46:40;;;;;;;;;;;11.30;57.40;;;;;;5073698;28;19908;-68
2022/03/01 10:49:10;;;;;;;;;;;10.40;57.80;;;;;;5056131;28;20368;-66
2022/03/01 10:51:48;;;;;;;;;;;10.70;58.60;;;;;;5073459;28;20337;-67
2022/03/01 10:54:23;;;;;;;;;;;11.00;57.80;;;;;;5074036;28;19951;-67
2022/03/01 10:56:50;;;;;;;;;;;11.00;57.60;;;;;;5057642;28;20026;-68
2022/03/01 10:59:16;;;;;;;;;;;10.80;57.70;;;;;;5060368;28;19958;-68
2022/03/01 11:01:41;;;;;;;;;;;11.20;57.50;;;;;;5076989;28;19928;-66
2022/03/01 11:04:07;;;;;;;;;;;11.80;55.40;;;;;;5059046;28;20034;-68
2022/03/01 11:06:34;;;;;;;;;;;12.20;54.60;;;;;;5058282;28;19908;-66
2022/03/01 11:09:00;;;;;;;;;;;12.50;54.00;;;;;;5059067;28;19913;-65
2022/03/01 11:11:26;;;;;;;;;;;12.80;53.30;;;;;;5058349;28;19908;-67
2022/03/01 11:13:52;;;;;;;;;;;13.10;52.80;;;;;;5058701;28;20269;-68
2022/03/01 11:16:36;;;;;;;;;;;13.00;52.40;;;;;;5076798;28;19915;-67
2022/03/01 11:19:20;;;;;;;;;;;13.20;52.80;;;;;;5076351;28;19909;-67
2022/03/01 11:21:47;;;;;;;;;;;12.90;52.80;;;;;;5058081;28;19951;-69
2022/03/01 11:24:14;;;;;;;;;;;12.00;54.10;;;;;;5058409;28;20380;-67
2022/03/01 11:26:40;;;;;;;;;;;13.00;51.40;;;;;;5075711;28;19955;-67
2022/03/01 11:29:16;;;;;;;;;;;13.10;51.90;;;;;;5076546;28;19940;-66
2022/03/01 11:31:42;;;;;;;;;;;13.80;52.10;;;;;;5057643;28;19908;-68
2022/03/01 11:34:12;;;;;;;;;;;13.70;53.10;;;;;;5076959;28;20029;-65
2022/03/01 11:36:37;;;;;;;;;;;13.10;52.90;;;;;;5056765;28;20272;-66
2022/03/01 11:39:14;;;;;;;;;;;13.90;52.40;;;;;;5074561;28;19995;-66
2022/03/01 11:41:40;;;;;;;;;;;;;;;;;;5055435;28;19913;-67
2022/03/01 11:44:07;;;;;;;;;;;13.20;49.90;;;;;;5074803;28;19923;-66
2022/03/01 11:46:43;;;;;;;;;;;13.30;51.70;;;;;;5074007;28;19999;-65
2022/03/01 11:49:10;;;;;;;;;;;13.50;52.00;;;;;;5056829;28;19912;-68
2022/03/01 11:51:38;;;;;;;;;;;14.10;50.90;;;;;;5092751;28;20361;-67
2022/03/01 11:54:06;;;;;;;;;;;14.00;49.80;;;;;;5095343;28;19923;-66
2022/03/01 11:56:35;;;;;;;;;;;14.20;51.20;;;;;;5094097;28;19922;-66
2022/03/01 11:59:08;;;;;;;;;;;14.20;50.00;;;;;;5086951;28;20325;-66
2022/03/01 12:01:34;;;;;;;;;;;13.90;50.50;;;;;;5093922;28;20347;-66
2022/03/01 12:04:07;;;;;;;;;;;14.30;50.80;;;;;;5075903;28;19963;-66
2022/03/01 12:06:34;;;;;;;;;;;14.90;49.50;;;;;;5093690;28;19908;-67
2022/03/01 12:09:00;;;;;;;;;;;14.50;49.10;;;;;;5074964;28;19924;-66
2022/03/01 12:11:32;;;;;;;;;;;14.40;48.00;;;;;;5089726;28;19919;-67
2022/03/01 12:14:01;;;;;;;;;;;14.10;48.00;;;;;;5075338;28;20451;-67
2022/03/01 12:16:27;;;;;;;;;;;13.40;48.00;;;;;;5073941;28;20361;-71
2022/03/01 12:19:03;;;;;;;;;;;13.90;47.70;;;;;;5075094;28;19915;-65
2022/03/01 12:21:28;;;;;;;;;;;14.60;47.40;;;;;;5076889;28;19908;-66
2022/03/01 12:23:54;;;;;;;;;;;14.90;47.80;;;;;;5074719;28;20497;-67
2022/03/01 12:26:19;;;;;;;;;;;14.80;46.50;;;;;;5087130;28;19927;-66
2022/03/01 12:28:46;;;;;;;;;;;14.10;46.80;;;;;;5091408;28;19908;-66
2022/03/01 12:31:15;;;;;;;;;;;14.00;46.60;;;;;;5093980;28;20025;-66
2022/03/01 12:33:51;;;;;;;;;;;14.60;47.10;;;;;;5074422;28;19966;-69
2022/03/01 12:36:22;;;;;;;;;;;13.00;47.50;;;;;;5082784;28;20473;-66
2022/03/01 12:38:55;;;;;;;;;;;13.00;48.10;;;;;;5093914;28;20247;-65
2022/03/01 12:41:22;;;;;;;;;;;14.00;48.20;;;;;;5075149;28;19920;-66
2022/03/01 12:43:55;;;;;;;;;;;14.80;48.70;;;;;;5092478;28;20608;-66
2022/03/01 12:46:20;;;;;;;;;;;15.50;48.40;;;;;;5087937;28;19913;-68
2022/03/01 12:48:48;;;;;;;;;;;15.60;47.40;;;;;;5054343;28;20357;-67
2022/03/01 12:51:13;;;;;;;;;;;16.10;47.40;;;;;;5059723;28;19919;-66
2022/03/01 12:53:48;;;;;;;;;;;16.00;46.30;;;;;;5073915;28;19916;-67
2022/03/01 12:56:18;;;;;;;;;;;14.70;46.60;;;;;;5093119;28;19912;-66
2022/03/01 12:58:44;;;;;;;;;;;15.30;46.70;;;;;;5070321;28;20023;-67
2022/03/01 13:01:11;;;;;;;;;;;15.20;46.60;;;;;;5068734;28;19955;-67
2022/03/01 13:03:36;;;;;;;;;;;16.00;46.60;;;;;;5092104;28;19915;-67
2022/03/01 13:06:05;;;;;;;;;;;14.40;46.70;;;;;;5073572;28;19908;-66
2022/03/01 13:08:41;;;;;;;;;;;14.30;46.90;;;;;;5085520;28;19919;-66
2022/03/01 13:11:08;;;;;;;;;;;14.20;46.90;;;;;;5057272;28;19931;-68
2022/03/01 13:13:51;;;;;;;;;;;12.70;48.20;;;;;;5077891;28;19931;-66
2022/03/01 13:16:21;;;;;;;;;;;13.10;47.60;;;;;;5062683;28;19912;-65
2022/03/01 13:18:47;;;;;;;;;;;13.00;47.90;;;;;;5072152;28;19919;-66
2022/03/01 13:21:13;;;;;;;;;;;13.90;48.00;;;;;;5068285;28;20402;-67
2022/03/01 13:23:38;;;;;;;;;;;14.80;46.60;;;;;;5053934;28;19924;-67
2022/03/01 13:26:04;;;;;;;;;;;15.70;46.60;;;;;;5070919;28;19974;-67
2022/03/01 13:28:32;;;;;;;;;;;16.60;45.50;;;;;;5060218;28;20014;-71
2022/03/01 13:30:58;;;;;;;;;;;16.50;44.40;;;;;;5073956;28;19908;-66
2022/03/01 13:33:27;;;;;;;;;;;16.80;44.60;;;;;;5073976;28;19908;-66
2022/03/01 13:35:53;;;;;;;;;;;17.00;44.60;;;;;;5069686;28;19908;-67
2022/03/01 13:38:19;;;;;;;;;;;17.50;43.50;;;;;;5091986;28;20269;-67
2022/03/01 13:40:45;;;;;;;;;;;17.90;43.50;;;;;;5091531;28;19908;-68
2022/03/01 13:43:12;;;;;;;;;;;16.50;43.80;;;;;;5073643;28;19908;-67
2022/03/01 13:45:39;;;;;;;;;;;16.80;43.80;;;;;;5073066;28;19918;-67
2022/03/01 13:48:13;;;;;;;;;;;17.30;43.80;;;;;;5073722;28;19946;-68
2022/03/01 13:50:39;;;;;;;;;;;17.50;43.30;;;;;;5091161;28;20266;-67
2022/03/01 13:53:23;;;;;;;;;;;17.40;42.40;;;;;;5073365;28;20277;-67
2022/03/01 13:55:52;;;;;;;;;;;16.80;42.30;;;;;;5089826;28;19993;-67
2022/03/01 13:58:20;;;;;;;;;;;17.70;42.60;;;;;;5091309;28;20397;-66
2022/03/01 14:00:46;;;;;;;;;;;17.70;41.40;;;;;;5071548;28;19915;-67
2022/03/01 14:03:13;;;;;;;;;;;15.70;42.30;;;;;;5065730;28;19918;-68
2022/03/01 14:05:46;;;;;;;;;;;16.00;43.00;;;;;;5082359;28;19931;-66
2022/03/01 14:08:14;;;;;;;;;;;16.60;42.20;;;;;;5077765;28;19952;-67
2022/03/01 14:10:41;;;;;;;;;;;16.10;43.00;;;;;;5070619;28;19912;-65
2022/03/01 14:13:08;;;;;;;;;;;17.00;42.80;;;;;;5052900;28;19916;-65
2022/03/01 14:15:34;;;;;;;;;;;16.40;41.80;;;;;;5082611;28;20368;-69
2022/03/01 14:18:00;;;;;;;;;;;16.10;42.50;;;;;;5072040;28;19912;-65
2022/03/01 14:20:27;;;;;;;;;;;16.60;42.50;;;;;;5087354;28;20376;-66
2022/03/01 14:22:53;;;;;;;;;;;17.20;42.20;;;;;;5083988;28;19920;-66